航空気象通報

ウインドサーファーのための航空気象通報による風予報です。

6/19-6/21の航空気象通報

2017年06月20日 00時23分03秒 | TAF
羽田空港
TAF RJTT 191107Z 1912/2018 12012KT 9999 FEW015
BECMG 2003/2006 18014KT
日本時間19日21時-20日12時:120度から12ノットの風
12-15時:風が変化
15時-21日03時:180度から14ノットの風


静岡空港
TAF RJNS 191107Z 1912/2018 34004KT 9999 SCT006 SCT012
TEMPO 1913/1918 4000 BR FEW005 BKN008
BECMG 2000/2003 16008KT
BECMG 2006/2009 23010KT
BECMG 2012/2015 02004KT 3000 -RA BR FEW006 BKN008
日本時間19日21時-20日09時:340度から4ノットの風
09-12時:風が変化
12-15時:160度から8ノットの風
15-18時:風が変化
18-21時:230度から10ノットの風
21-24時:風が変化
21日00-03時:020度から4ノットの風
、20日21-24時の後、

福岡空港
TAF RJFF 191105Z 1912/2018 14005KT 9999 FEW030
TEMPO 2006/2009 4000 RA BR
TEMPO 2015/2018 4000 SHRA BR
日本時間19日21時-21日03時:140度から5ノットの風

但し、20日15-18時の間:ときどき
但し、21日00-03時の間:ときどき

那覇空港
TAF AMD ROAH 191445Z 1914/2018 28011KT 9999 FEW010 BKN035
BECMG 1915/1917 19013KT
TEMPO 2003/2012 -TSRA FEW006 BKN010 FEW020CB
日本時間19日21-24時:280度から11ノットの風
20日00-02時:風が変化
02時-21日03時:190度から13ノットの風

但し、20日12-21時の間:ときどき

石垣空港
TAF ROIG 191111Z 1912/2018 21013KT 9999 FEW007 SCT020
日本時間19日21時-21日03時:210度から13ノットの風


マウイのカフルイ空港
PHOG 191127Z 1912/2012 06009KT P6SM FEW025 SCT050
FM191900 05014G22KT P6SM FEW025 SCT050
FM192200 05020G28KT P6SM FEW025 SCT050
FM200500 06012KT P6SM FEW025 FEW050 AMD LTD TO VIS AND WIND TIL 191600
ハワイ時間19日02-09時:060度から9ノットの風
09-12時:050度から14ノット、突風22ノット
12-19時:050度から20ノット、突風28ノット
19時-20日02時:060度から12ノットの風


サイパン空港
TAF PGSN 191136Z 1912/2012 10010KT P6SM VCSH SCT020 SCT050 BKN100
FM192300 10011KT P6SM VCSH SCT018 SCT035 BKN120
マリアナ時間19日22時-20日09時:100度から10ノットの風
09-22時:100度から11ノットの風
ジャンル:
お天気
コメント   この記事についてブログを書く
この記事をはてなブックマークに追加
« 6/18-6/20の航空気象通報 | トップ | 6/21-6/23の航空気象通報 »
最近の画像もっと見る

コメントを投稿

ブログ作成者から承認されるまでコメントは反映されません。

TAF」カテゴリの最新記事

トラックバック

この記事のトラックバック  Ping-URL
ブログ作成者から承認されるまでトラックバックは反映されません。
  • 30日以上前の記事に対するトラックバックは受け取らないよう設定されております。
  • 送信元の記事内容が半角英数のみのトラックバックは受け取らないよう設定されております。
  • このブログへのリンクがない記事からのトラックバックは受け取らないよう設定されております。
  • ※ブログ管理者のみ、編集画面で設定の変更が可能です。